createdAt,value
2022-10-17T00:01:52.406Z,6.55
2022-10-17T00:04:19.731Z,7.20
2022-10-17T00:06:46.989Z,6.25
2022-10-17T00:09:14.239Z,6.43
2022-10-17T00:11:41.510Z,5.88
2022-10-17T00:14:08.793Z,5.55
2022-10-17T00:16:37.635Z,5.35
2022-10-17T00:19:05.855Z,5.10
2022-10-17T00:21:33.266Z,4.97
2022-10-17T00:24:00.819Z,4.63
2022-10-17T00:26:31.435Z,4.40
2022-10-17T00:28:58.795Z,4.65
2022-10-17T00:31:26.397Z,4.30
2022-10-17T00:33:53.968Z,4.53
2022-10-17T00:36:22.943Z,4.20
2022-10-17T00:38:51.753Z,3.80
2022-10-17T00:41:20.308Z,3.80
2022-10-17T00:43:54.921Z,3.30
2022-10-17T00:46:23.310Z,4.35
2022-10-17T00:48:51.677Z,3.60
2022-10-17T00:51:20.557Z,2.97
2022-10-17T00:53:47.992Z,3.17
2022-10-17T00:56:16.121Z,3.13
2022-10-17T00:58:43.399Z,2.60
2022-10-17T01:01:10.792Z,2.95
2022-10-17T01:03:38.102Z,2.65
2022-10-17T01:06:05.431Z,2.38
2022-10-17T01:08:32.810Z,2.60
2022-10-17T01:11:23.019Z,2.40
2022-10-17T01:13:57.961Z,2.55
2022-10-17T01:16:44.074Z,2.35
2022-10-17T01:21:55.330Z,2.03
2022-10-17T01:24:41.301Z,2.08
2022-10-17T01:27:11.267Z,2.22
2022-10-17T01:29:53.659Z,2.30
2022-10-17T01:32:23.835Z,2.20
2022-10-17T01:35:09.481Z,2.13
2022-10-17T01:37:48.917Z,1.90
2022-10-17T01:40:26.269Z,2.00
2022-10-17T01:43:02.693Z,2.20
2022-10-17T01:45:35.319Z,2.20
2022-10-17T01:48:06.443Z,2.25
2022-10-17T01:53:11.587Z,2.00
2022-10-17T01:55:41.387Z,2.15
2022-10-17T01:58:11.492Z,3.38
2022-10-17T02:00:41.455Z,2.40
2022-10-17T02:03:10.609Z,2.45
2022-10-17T02:05:40.901Z,1.95
2022-10-17T02:08:08.488Z,2.10
2022-10-17T02:10:50.502Z,1.77
2022-10-17T02:13:17.743Z,2.22
2022-10-17T02:16:14.426Z,2.58
2022-10-17T02:18:47.763Z,2.30
2022-10-17T02:21:21.027Z,2.03
2022-10-17T02:23:48.247Z,2.10
2022-10-17T02:26:18.188Z,2.15
2022-10-17T02:28:53.422Z,2.53
2022-10-17T02:31:26.199Z,1.80
2022-10-17T02:33:59.896Z,2.05
2022-10-17T02:36:29.943Z,2.97
2022-10-17T02:38:57.424Z,2.38
2022-10-17T02:41:25.408Z,2.20
2022-10-17T02:43:55.636Z,2.30
2022-10-17T02:49:00.038Z,2.05
2022-10-17T02:51:33.612Z,2.78
2022-10-17T02:54:12.767Z,2.47
2022-10-17T02:56:44.906Z,2.05
2022-10-17T02:59:14.912Z,2.80
2022-10-17T03:01:42.612Z,2.50
2022-10-17T03:04:11.098Z,2.28
2022-10-17T03:06:38.485Z,2.75
2022-10-17T03:09:06.072Z,2.40
2022-10-17T03:11:33.339Z,2.75
2022-10-17T03:14:00.592Z,2.45
2022-10-17T03:16:27.940Z,2.45
2022-10-17T03:18:55.282Z,2.78
2022-10-17T03:21:22.569Z,2.28
2022-10-17T03:23:49.845Z,2.75
2022-10-17T03:26:17.085Z,2.80
2022-10-17T03:28:44.436Z,2.85
2022-10-17T03:31:13.538Z,2.38
2022-10-17T03:33:40.762Z,2.80
2022-10-17T03:36:08.903Z,2.88
2022-10-17T03:38:36.218Z,2.78
2022-10-17T03:41:03.947Z,2.65
2022-10-17T03:43:31.321Z,2.83
2022-10-17T03:45:59.555Z,3.05
2022-10-17T03:48:27.361Z,2.83
2022-10-17T03:50:59.614Z,2.63
2022-10-17T03:53:26.857Z,3.58
2022-10-17T03:55:54.074Z,2.60
2022-10-17T03:58:21.419Z,2.80
2022-10-17T04:00:48.686Z,3.08
2022-10-17T04:03:17.383Z,2.70
2022-10-17T04:05:44.829Z,2.90
2022-10-17T04:08:12.133Z,2.25
2022-10-17T04:10:39.496Z,2.55
2022-10-17T04:13:06.874Z,2.17
2022-10-17T04:15:34.119Z,3.00
2022-10-17T04:18:01.379Z,2.67
2022-10-17T04:20:28.613Z,3.10
2022-10-17T04:22:55.858Z,2.45
2022-10-17T04:25:23.097Z,3.20
2022-10-17T04:27:50.368Z,2.38
2022-10-17T04:30:18.172Z,2.95
2022-10-17T04:32:45.516Z,2.78
2022-10-17T04:35:12.794Z,3.17
2022-10-17T04:37:40.094Z,2.55
2022-10-17T04:40:07.664Z,2.72
2022-10-17T04:42:34.971Z,2.50
2022-10-17T04:45:02.301Z,2.20
2022-10-17T04:47:29.555Z,2.60
2022-10-17T04:49:56.832Z,2.45
2022-10-17T04:52:25.249Z,3.15
2022-10-17T04:54:52.495Z,2.72
2022-10-17T04:57:20.154Z,3.35
2022-10-17T04:59:47.408Z,3.20
2022-10-17T05:02:14.711Z,3.22
2022-10-17T05:04:41.932Z,3.63
2022-10-17T05:07:09.186Z,3.80
2022-10-17T05:09:36.534Z,4.07
2022-10-17T05:12:05.461Z,3.60
2022-10-17T05:14:35.302Z,3.60
2022-10-17T05:17:02.557Z,3.90
2022-10-17T05:19:29.822Z,3.17
2022-10-17T05:21:57.090Z,3.05
2022-10-17T05:24:24.359Z,3.53
2022-10-17T05:26:52.197Z,3.83
2022-10-17T05:29:19.518Z,3.67
2022-10-17T05:31:46.727Z,3.40
2022-10-17T05:34:14.157Z,3.40
2022-10-17T05:36:41.419Z,3.25
2022-10-17T05:39:08.968Z,2.75
2022-10-17T05:41:36.225Z,3.00
2022-10-17T05:44:05.512Z,3.10
2022-10-17T05:46:33.092Z,2.72
2022-10-17T05:49:00.406Z,2.97
2022-10-17T05:51:27.754Z,3.10
2022-10-17T05:53:55.014Z,3.20
2022-10-17T05:56:22.334Z,3.03
2022-10-17T05:58:51.566Z,2.95
2022-10-17T06:01:20.667Z,3.20
2022-10-17T06:03:47.939Z,3.35
2022-10-17T06:06:15.665Z,2.70
2022-10-17T06:08:42.937Z,3.47
2022-10-17T06:11:10.787Z,2.85
2022-10-17T06:13:38.446Z,2.83
2022-10-17T06:16:05.919Z,3.08
2022-10-17T06:18:33.206Z,3.13
2022-10-17T06:21:04.934Z,3.60
2022-10-17T06:23:32.308Z,2.63
2022-10-17T06:26:03.063Z,3.10
2022-10-17T06:28:30.402Z,3.90
2022-10-17T06:30:57.689Z,3.22
2022-10-17T06:33:25.059Z,3.63
2022-10-17T06:35:55.911Z,2.97
2022-10-17T06:38:23.710Z,3.97
2022-10-17T06:40:51.053Z,3.33
2022-10-17T06:43:18.391Z,3.30
2022-10-17T06:45:47.598Z,3.15
2022-10-17T06:48:15.394Z,2.90
2022-10-17T06:50:42.624Z,2.78
2022-10-17T06:53:09.914Z,3.25
2022-10-17T06:55:37.127Z,3.45
2022-10-17T06:58:04.365Z,2.38
2022-10-17T07:00:31.630Z,2.75
2022-10-17T07:02:58.908Z,2.72
2022-10-17T07:05:26.174Z,2.95
2022-10-17T07:07:53.490Z,2.97
2022-10-17T07:10:20.852Z,2.53
2022-10-17T07:12:48.333Z,2.88
2022-10-17T07:15:15.625Z,3.00
2022-10-17T07:17:42.929Z,2.30
2022-10-17T07:20:13.084Z,2.15
2022-10-17T07:22:40.428Z,2.92
2022-10-17T07:25:08.055Z,2.40
2022-10-17T07:27:35.297Z,2.95
2022-10-17T07:30:02.562Z,2.40
2022-10-17T07:32:29.819Z,2.47
2022-10-17T07:34:57.065Z,2.53
2022-10-17T07:37:24.291Z,2.60
2022-10-17T07:39:51.690Z,2.20
2022-10-17T07:42:18.925Z,2.88
2022-10-17T07:44:47.612Z,2.80
2022-10-17T07:47:14.879Z,3.50
2022-10-17T07:49:44.146Z,2.92
2022-10-17T07:52:15.280Z,4.38
2022-10-17T07:57:10.185Z,2.92
2022-10-17T07:59:38.610Z,3.47
2022-10-17T08:02:08.140Z,2.75
2022-10-17T08:04:36.547Z,2.33
2022-10-17T08:07:19.629Z,2.78
2022-10-17T08:09:49.296Z,2.13
2022-10-17T08:12:16.669Z,2.80
2022-10-17T08:14:44.434Z,2.10
2022-10-17T08:17:11.728Z,2.33
2022-10-17T08:19:40.375Z,2.95
2022-10-17T08:22:08.091Z,2.80
2022-10-17T08:24:38.035Z,2.60
2022-10-17T08:27:11.493Z,2.53
2022-10-17T08:29:39.339Z,2.40
2022-10-17T08:32:09.724Z,2.83
2022-10-17T08:34:37.480Z,2.38
2022-10-17T08:37:04.839Z,2.55
2022-10-17T08:39:32.082Z,2.50
2022-10-17T08:42:06.785Z,2.60
2022-10-17T08:44:45.939Z,3.05
2022-10-17T08:47:29.752Z,2.88
2022-10-17T08:49:58.320Z,3.10
2022-10-17T08:52:25.585Z,3.53
2022-10-17T08:54:52.853Z,3.25
2022-10-17T08:57:20.152Z,3.00
2022-10-17T08:59:52.163Z,3.88
2022-10-17T09:02:26.432Z,3.38
2022-10-17T09:05:08.902Z,2.85
2022-10-17T09:07:36.118Z,2.40
2022-10-17T09:10:03.332Z,2.53
2022-10-17T09:12:33.331Z,1.95
2022-10-17T09:15:06.381Z,2.92
2022-10-17T09:17:54.152Z,2.55
2022-10-17T09:20:24.222Z,2.15
2022-10-17T09:23:01.964Z,1.83
2022-10-17T09:25:29.481Z,2.53
2022-10-17T09:27:59.852Z,3.13
2022-10-17T09:30:46.003Z,2.75
2022-10-17T09:33:35.684Z,2.60
2022-10-17T09:36:28.937Z,2.40
2022-10-17T09:38:57.488Z,1.70
2022-10-17T09:44:22.939Z,2.55
2022-10-17T09:46:57.510Z,2.17
2022-10-17T09:49:30.125Z,2.08
2022-10-17T09:51:57.974Z,2.25
2022-10-17T09:54:27.592Z,2.13
2022-10-17T09:56:59.182Z,2.10
2022-10-17T09:59:49.813Z,2.10
2022-10-17T10:02:18.851Z,2.28
2022-10-17T10:05:03.603Z,2.30
2022-10-17T10:07:33.040Z,1.73
2022-10-17T10:10:01.965Z,2.28
2022-10-17T10:12:31.499Z,1.75
2022-10-17T10:14:59.380Z,1.90
2022-10-17T10:17:28.745Z,2.13
2022-10-17T10:19:56.553Z,1.83
2022-10-17T10:22:23.975Z,2.20
2022-10-17T10:25:09.975Z,1.77
2022-10-17T10:27:37.593Z,1.98
2022-10-17T10:30:05.329Z,1.80
2022-10-17T10:32:34.030Z,1.85
2022-10-17T10:35:08.652Z,1.77
2022-10-17T10:37:38.970Z,1.55
2022-10-17T10:40:20.995Z,2.15
2022-10-17T10:42:50.206Z,1.83
2022-10-17T10:45:42.892Z,1.70
2022-10-17T10:48:26.663Z,2.13
2022-10-17T10:50:58.713Z,1.80
2022-10-17T10:53:35.631Z,1.98
2022-10-17T10:56:11.769Z,1.75
2022-10-17T10:58:51.025Z,2.00
2022-10-17T11:01:23.216Z,1.75
2022-10-17T11:03:50.563Z,1.38
2022-10-17T11:06:21.287Z,1.80
2022-10-17T11:08:48.574Z,1.92
2022-10-17T11:11:19.616Z,1.92
2022-10-17T11:13:53.306Z,2.13
2022-10-17T11:16:23.698Z,2.13
2022-10-17T11:18:53.190Z,2.05
2022-10-17T11:21:25.611Z,1.80
2022-10-17T11:24:11.460Z,2.13
2022-10-17T11:26:46.027Z,1.58
2022-10-17T11:29:13.918Z,1.52
2022-10-17T11:31:44.240Z,1.77
2022-10-17T11:34:19.599Z,1.73
2022-10-17T11:36:48.744Z,1.33
2022-10-17T11:39:18.767Z,1.65
2022-10-17T11:41:55.482Z,1.57
2022-10-17T11:44:30.608Z,1.75
2022-10-17T11:47:03.554Z,2.08
2022-10-17T11:49:42.278Z,1.70
2022-10-17T11:52:09.906Z,1.70
2022-10-17T11:54:42.341Z,1.70
2022-10-17T11:57:20.514Z,2.03
2022-10-17T11:59:58.242Z,1.67
2022-10-17T12:02:34.619Z,1.80
2022-10-17T12:05:10.899Z,2.13
2022-10-17T12:07:48.139Z,2.53
2022-10-17T12:10:33.804Z,1.85
2022-10-17T12:13:20.015Z,1.83
2022-10-17T12:15:47.231Z,2.10
2022-10-17T12:18:20.313Z,1.90
2022-10-17T12:21:00.645Z,2.05
2022-10-17T12:23:32.590Z,3.23
2022-10-17T12:26:04.506Z,2.15
2022-10-17T12:28:43.166Z,1.65
2022-10-17T12:31:17.598Z,3.30
2022-10-17T12:33:52.822Z,2.13
2022-10-17T12:36:23.067Z,1.80
2022-10-17T12:38:50.438Z,1.47
2022-10-17T12:41:18.373Z,2.13
2022-10-17T12:46:37.725Z,1.67
2022-10-17T12:49:05.479Z,1.98
2022-10-17T12:51:52.672Z,2.45
2022-10-17T12:54:20.012Z,2.00
2022-10-17T12:56:48.511Z,2.10
2022-10-17T12:59:22.014Z,1.92
2022-10-17T13:01:50.700Z,1.88
2022-10-17T13:04:18.559Z,1.25
2022-10-17T13:06:48.219Z,1.60
2022-10-17T13:09:23.356Z,1.80
2022-10-17T13:11:50.828Z,1.75
2022-10-17T13:14:19.645Z,1.88
2022-10-17T13:16:54.836Z,1.55
2022-10-17T13:19:23.889Z,1.70
2022-10-17T13:21:53.447Z,2.03
2022-10-17T13:24:29.233Z,1.83
2022-10-17T13:26:56.793Z,1.40
2022-10-17T13:29:25.886Z,1.70
2022-10-17T13:31:54.746Z,1.90
2022-10-17T13:34:23.748Z,2.20
2022-10-17T13:37:04.947Z,2.28
2022-10-17T13:39:55.178Z,2.00
2022-10-17T13:42:23.478Z,2.22
2022-10-17T13:44:50.792Z,2.30
2022-10-17T13:47:24.895Z,2.03
2022-10-17T13:49:55.179Z,2.10
2022-10-17T13:52:24.257Z,2.10
2022-10-17T13:54:53.720Z,1.67
2022-10-17T13:57:26.341Z,1.85
2022-10-17T13:59:58.686Z,2.05
2022-10-17T14:02:29.963Z,1.40
2022-10-17T14:05:16.805Z,2.03
2022-10-17T14:10:41.294Z,1.90
2022-10-17T14:13:09.291Z,1.60
2022-10-17T14:15:37.619Z,1.80
2022-10-17T14:18:07.963Z,2.00
2022-10-17T14:23:30.328Z,2.20
2022-10-17T14:26:21.550Z,2.28
2022-10-17T14:29:03.396Z,2.13
2022-10-17T14:31:33.107Z,1.80
2022-10-17T14:34:01.176Z,1.80
2022-10-17T14:36:33.502Z,2.58
2022-10-17T14:39:01.873Z,2.13
2022-10-17T14:41:47.569Z,2.13
2022-10-17T14:44:17.657Z,2.17
2022-10-17T14:46:50.441Z,2.70
2022-10-17T14:49:24.258Z,2.58
2022-10-17T14:52:14.939Z,2.35
2022-10-17T14:54:48.674Z,2.03
2022-10-17T14:57:18.611Z,2.45
2022-10-17T14:59:54.779Z,2.40
2022-10-17T15:02:22.944Z,2.17
2022-10-17T15:04:50.226Z,2.70
2022-10-17T15:07:18.347Z,2.45
2022-10-17T15:09:46.119Z,2.30
2022-10-17T15:12:17.460Z,2.25
2022-10-17T15:14:47.425Z,2.42
2022-10-17T15:17:20.737Z,2.42
2022-10-17T15:19:48.564Z,2.50
2022-10-17T15:22:16.392Z,2.30
2022-10-17T15:24:43.833Z,2.22
2022-10-17T15:27:17.879Z,2.33
2022-10-17T15:29:45.405Z,2.25
2022-10-17T15:32:13.074Z,2.72
2022-10-17T15:34:40.560Z,2.28
2022-10-17T15:37:14.232Z,3.08
2022-10-17T15:39:41.489Z,3.70
2022-10-17T15:42:12.657Z,3.40
2022-10-17T15:47:22.292Z,3.20
2022-10-17T15:49:49.536Z,3.35
2022-10-17T15:52:16.822Z,3.42
2022-10-17T15:54:44.301Z,3.30
2022-10-17T15:57:17.206Z,3.13
2022-10-17T15:59:46.930Z,3.70
2022-10-17T16:02:15.487Z,3.45
2022-10-17T16:04:43.117Z,3.63
2022-10-17T16:07:10.753Z,3.50
2022-10-17T16:09:38.147Z,4.13
2022-10-17T16:12:06.788Z,4.63
2022-10-17T16:14:34.296Z,3.72
2022-10-17T16:17:01.753Z,4.10
2022-10-17T16:19:30.146Z,4.82
2022-10-17T16:22:00.769Z,5.10
2022-10-17T16:24:30.929Z,5.60
2022-10-17T16:26:58.174Z,7.50
2022-10-17T16:29:25.423Z,7.93
2022-10-17T16:31:52.666Z,7.53
2022-10-17T16:34:19.897Z,7.15
2022-10-17T16:36:47.166Z,6.68
2022-10-17T16:39:14.462Z,6.93
2022-10-17T16:41:41.850Z,6.53
2022-10-17T16:44:13.005Z,7.22
2022-10-17T16:49:08.266Z,6.60
2022-10-17T16:51:36.178Z,6.75
2022-10-17T16:54:04.647Z,6.45
2022-10-17T16:56:33.036Z,5.85
2022-10-17T16:59:01.005Z,6.30
2022-10-17T17:01:32.271Z,6.32
2022-10-17T17:03:59.943Z,5.90
2022-10-17T17:06:28.907Z,5.82
2022-10-17T17:08:56.521Z,6.18
2022-10-17T17:11:24.758Z,5.63
2022-10-17T17:13:52.062Z,5.00
2022-10-17T17:16:23.547Z,5.15
2022-10-17T17:18:54.336Z,4.47
2022-10-17T17:21:21.578Z,4.60
2022-10-17T17:23:48.880Z,4.97
2022-10-17T17:26:23.502Z,5.28
2022-10-17T17:28:51.213Z,5.03
2022-10-17T17:31:20.562Z,5.30
2022-10-17T17:33:48.351Z,4.80
2022-10-17T17:36:23.249Z,5.35
2022-10-17T17:38:51.025Z,4.63
2022-10-17T17:41:19.568Z,5.20
2022-10-17T17:43:47.736Z,4.90
2022-10-17T17:46:16.722Z,5.28
2022-10-17T17:48:44.525Z,5.05
2022-10-17T17:51:12.584Z,6.88
2022-10-17T17:53:40.302Z,7.57
2022-10-17T17:56:07.690Z,6.40
2022-10-17T17:58:35.568Z,6.65
2022-10-17T18:03:35.264Z,6.28
2022-10-17T18:06:02.480Z,6.07
2022-10-17T18:08:30.189Z,6.75
2022-10-17T18:11:00.010Z,7.60
2022-10-17T18:13:27.365Z,7.55
2022-10-17T18:15:58.329Z,7.78
2022-10-17T18:18:26.462Z,7.03
2022-10-17T18:20:54.616Z,6.65
2022-10-17T18:23:24.815Z,4.93
2022-10-17T18:26:00.841Z,6.15
2022-10-17T18:28:28.512Z,7.85
2022-10-17T18:30:58.110Z,15.07
2022-10-17T18:33:25.594Z,8.93
2022-10-17T18:35:55.951Z,9.52
2022-10-17T18:38:25.367Z,10.13
2022-10-17T18:41:02.269Z,7.20
2022-10-17T18:43:29.511Z,5.05
2022-10-17T18:45:57.505Z,4.50
2022-10-17T18:48:24.759Z,5.05
2022-10-17T18:50:52.106Z,4.65
2022-10-17T18:53:19.327Z,4.57
2022-10-17T18:58:19.699Z,4.70
2022-10-17T19:00:47.147Z,4.20
2022-10-17T19:03:14.663Z,5.38
2022-10-17T19:05:45.156Z,4.95
2022-10-17T19:08:13.594Z,4.10
2022-10-17T19:10:41.752Z,4.28
2022-10-17T19:13:12.033Z,4.63
2022-10-17T19:15:39.787Z,4.67
2022-10-17T19:18:07.178Z,4.32
2022-10-17T19:20:34.443Z,5.60
2022-10-17T19:23:01.815Z,5.57
2022-10-17T19:25:30.576Z,5.13
2022-10-17T19:27:58.372Z,5.47
2022-10-17T19:30:25.702Z,4.65
2022-10-17T19:32:53.007Z,4.82
2022-10-17T19:35:20.327Z,3.95
2022-10-17T19:37:47.569Z,4.13
2022-10-17T19:40:14.842Z,4.03
2022-10-17T19:42:42.117Z,3.70
2022-10-17T19:45:09.911Z,3.97
2022-10-17T19:47:37.233Z,3.78
2022-10-17T19:50:04.918Z,3.80
2022-10-17T19:52:32.590Z,4.60
2022-10-17T19:55:00.138Z,4.50
2022-10-17T19:57:27.514Z,3.40
2022-10-17T19:59:56.032Z,3.60
2022-10-17T20:02:23.487Z,3.03
2022-10-17T20:04:59.935Z,3.25
2022-10-17T20:07:37.961Z,3.60
2022-10-17T20:10:05.400Z,4.00
2022-10-17T20:12:33.070Z,3.70
2022-10-17T20:15:00.606Z,2.80
2022-10-17T20:17:28.083Z,2.95
2022-10-17T20:19:55.436Z,2.88
2022-10-17T20:22:22.666Z,2.83
2022-10-17T20:24:50.091Z,3.25
2022-10-17T20:27:18.056Z,2.30
2022-10-17T20:29:45.332Z,2.88
2022-10-17T20:32:12.574Z,2.70
2022-10-17T20:34:39.974Z,2.30
2022-10-17T20:37:07.227Z,2.33
2022-10-17T20:39:34.483Z,2.78
2022-10-17T20:42:01.730Z,2.53
2022-10-17T20:44:28.957Z,2.70
2022-10-17T20:47:02.175Z,2.20
2022-10-17T20:49:30.146Z,2.97
2022-10-17T20:51:57.568Z,2.88
2022-10-17T20:54:25.057Z,3.45
2022-10-17T20:56:52.345Z,2.90
2022-10-17T20:59:19.920Z,3.08
2022-10-17T21:01:47.814Z,3.17
2022-10-17T21:04:43.993Z,3.42
2022-10-17T21:07:02.634Z,3.70
2022-10-17T21:09:29.886Z,3.45
2022-10-17T21:11:57.273Z,3.67
2022-10-17T21:14:25.371Z,3.83
2022-10-17T21:16:52.659Z,4.18
2022-10-17T21:19:21.760Z,4.05
2022-10-17T21:21:49.171Z,4.00
2022-10-17T21:24:18.176Z,4.50
2022-10-17T21:26:46.468Z,4.63
2022-10-17T21:29:14.380Z,4.70
2022-10-17T21:31:42.273Z,4.80
2022-10-17T21:34:14.005Z,4.40
2022-10-17T21:36:41.712Z,5.18
2022-10-17T21:39:09.315Z,4.90
2022-10-17T21:41:36.542Z,4.70
2022-10-17T21:44:05.362Z,4.40
2022-10-17T21:46:33.122Z,5.10
2022-10-17T21:49:01.115Z,4.82
2022-10-17T21:51:28.420Z,4.68
2022-10-17T21:53:56.620Z,4.78
2022-10-17T21:56:25.409Z,5.22
2022-10-17T21:58:52.659Z,4.50
2022-10-17T22:01:21.442Z,4.80
2022-10-17T22:03:50.500Z,5.93
2022-10-17T22:06:38.833Z,5.05
2022-10-17T22:09:07.748Z,5.78
2022-10-17T22:11:35.656Z,4.50
2022-10-17T22:14:04.117Z,4.95
2022-10-17T22:16:31.608Z,4.85
2022-10-17T22:19:05.944Z,4.55
2022-10-17T22:21:34.341Z,4.85
2022-10-17T22:24:02.499Z,4.03
2022-10-17T22:26:31.083Z,4.78
2022-10-17T22:28:58.783Z,4.10
2022-10-17T22:31:26.162Z,4.15
2022-10-17T22:33:53.580Z,3.80
2022-10-17T22:36:20.930Z,4.05
2022-10-17T22:38:48.326Z,4.35
2022-10-17T22:41:15.561Z,3.88
2022-10-17T22:43:42.839Z,4.18
2022-10-17T22:46:13.020Z,3.95
2022-10-17T22:48:40.411Z,6.28
2022-10-17T22:51:07.897Z,29.60
2022-10-17T22:53:36.020Z,8.93
2022-10-17T22:56:04.820Z,6.65
2022-10-17T22:58:33.051Z,5.03
2022-10-17T23:01:00.628Z,5.03
2022-10-17T23:03:28.719Z,5.75
2022-10-17T23:05:56.753Z,5.80
2022-10-17T23:08:24.569Z,6.10
2022-10-17T23:10:51.870Z,5.63
2022-10-17T23:13:19.949Z,5.63
2022-10-17T23:15:47.326Z,6.47
2022-10-17T23:18:14.556Z,6.63
2022-10-17T23:20:41.827Z,6.88
2022-10-17T23:23:09.082Z,7.00
2022-10-17T23:25:36.357Z,6.90
2022-10-17T23:28:03.645Z,7.68
2022-10-17T23:30:32.766Z,8.30
2022-10-17T23:33:00.121Z,9.10
2022-10-17T23:35:27.413Z,9.70
2022-10-17T23:37:54.682Z,10.85
2022-10-17T23:40:21.939Z,10.60
2022-10-17T23:42:49.186Z,11.60
2022-10-17T23:45:16.607Z,13.05
2022-10-17T23:47:43.860Z,13.57
2022-10-17T23:50:19.864Z,12.55
2022-10-17T23:52:47.116Z,13.38
2022-10-17T23:55:14.437Z,14.05
2022-10-17T23:57:41.746Z,15.45
